sensor_id;sensor_type;location;lat;lon;timestamp;P1;durP1;ratioP1;P2;durP2;ratioP2
11064;SDS011;5585;52.530;7.320;2024-03-22T00:01:45;31.07;;;27.73;;
11064;SDS011;5585;52.530;7.320;2024-03-22T00:04:11;32.00;;;28.23;;
11064;SDS011;5585;52.530;7.320;2024-03-22T00:06:37;31.57;;;27.63;;
11064;SDS011;5585;52.530;7.320;2024-03-22T00:09:03;32.60;;;27.20;;
11064;SDS011;5585;52.530;7.320;2024-03-22T00:11:29;31.20;;;27.87;;
11064;SDS011;5585;52.530;7.320;2024-03-22T00:13:55;31.42;;;26.30;;
11064;SDS011;5585;52.530;7.320;2024-03-22T00:16:21;29.75;;;26.55;;
11064;SDS011;5585;52.530;7.320;2024-03-22T00:18:48;30.30;;;26.83;;
11064;SDS011;5585;52.530;7.320;2024-03-22T00:21:14;30.50;;;26.33;;
11064;SDS011;5585;52.530;7.320;2024-03-22T00:23:40;30.40;;;25.47;;
11064;SDS011;5585;52.530;7.320;2024-03-22T00:26:06;29.90;;;24.77;;
11064;SDS011;5585;52.530;7.320;2024-03-22T00:28:32;29.00;;;25.53;;
11064;SDS011;5585;52.530;7.320;2024-03-22T00:30:58;28.47;;;25.37;;
11064;SDS011;5585;52.530;7.320;2024-03-22T00:33:24;29.63;;;25.33;;
11064;SDS011;5585;52.530;7.320;2024-03-22T00:35:52;30.23;;;25.67;;
11064;SDS011;5585;52.530;7.320;2024-03-22T00:38:17;30.60;;;26.13;;
11064;SDS011;5585;52.530;7.320;2024-03-22T00:40:43;30.15;;;25.85;;
11064;SDS011;5585;52.530;7.320;2024-03-22T00:43:09;31.93;;;26.40;;
11064;SDS011;5585;52.530;7.320;2024-03-22T00:45:35;29.53;;;24.73;;
11064;SDS011;5585;52.530;7.320;2024-03-22T00:48:01;31.50;;;25.87;;
11064;SDS011;5585;52.530;7.320;2024-03-22T00:50:27;29.30;;;25.00;;
11064;SDS011;5585;52.530;7.320;2024-03-22T00:52:54;30.10;;;25.93;;
11064;SDS011;5585;52.530;7.320;2024-03-22T00:55:21;30.37;;;26.07;;
11064;SDS011;5585;52.530;7.320;2024-03-22T00:57:46;30.20;;;24.70;;
11064;SDS011;5585;52.530;7.320;2024-03-22T01:00:13;32.40;;;26.27;;
11064;SDS011;5585;52.530;7.320;2024-03-22T01:02:39;29.63;;;25.55;;
11064;SDS011;5585;52.530;7.320;2024-03-22T01:05:06;27.87;;;23.93;;
11064;SDS011;5585;52.530;7.320;2024-03-22T01:07:31;29.10;;;24.57;;
11064;SDS011;5585;52.530;7.320;2024-03-22T01:09:59;28.88;;;23.92;;
11064;SDS011;5585;52.530;7.320;2024-03-22T01:12:25;27.50;;;23.00;;
11064;SDS011;5585;52.530;7.320;2024-03-22T01:14:51;31.58;;;25.50;;
11064;SDS011;5585;52.530;7.320;2024-03-22T01:17:17;28.13;;;24.80;;
11064;SDS011;5585;52.530;7.320;2024-03-22T01:19:43;32.27;;;25.60;;
11064;SDS011;5585;52.530;7.320;2024-03-22T01:22:09;30.97;;;24.87;;
11064;SDS011;5585;52.530;7.320;2024-03-22T01:24:35;30.73;;;25.03;;
11064;SDS011;5585;52.530;7.320;2024-03-22T01:27:02;31.63;;;26.00;;
11064;SDS011;5585;52.530;7.320;2024-03-22T01:29:29;29.30;;;23.88;;
11064;SDS011;5585;52.530;7.320;2024-03-22T01:31:57;32.83;;;24.92;;
11064;SDS011;5585;52.530;7.320;2024-03-22T01:34:23;31.43;;;25.17;;
11064;SDS011;5585;52.530;7.320;2024-03-22T01:36:49;35.22;;;26.10;;
11064;SDS011;5585;52.530;7.320;2024-03-22T01:39:16;31.45;;;25.50;;
11064;SDS011;5585;52.530;7.320;2024-03-22T01:41:42;31.50;;;25.30;;
11064;SDS011;5585;52.530;7.320;2024-03-22T01:44:10;33.73;;;26.87;;
11064;SDS011;5585;52.530;7.320;2024-03-22T01:46:37;32.70;;;25.17;;
11064;SDS011;5585;52.530;7.320;2024-03-22T01:49:03;33.40;;;26.17;;
11064;SDS011;5585;52.530;7.320;2024-03-22T01:51:29;30.33;;;24.43;;
11064;SDS011;5585;52.530;7.320;2024-03-22T01:53:55;32.03;;;25.20;;
11064;SDS011;5585;52.530;7.320;2024-03-22T01:56:21;31.48;;;24.63;;
11064;SDS011;5585;52.530;7.320;2024-03-22T01:58:48;34.73;;;26.73;;
11064;SDS011;5585;52.530;7.320;2024-03-22T02:01:15;36.40;;;27.05;;
11064;SDS011;5585;52.530;7.320;2024-03-22T02:03:41;32.43;;;25.80;;
11064;SDS011;5585;52.530;7.320;2024-03-22T02:06:07;31.83;;;25.25;;
11064;SDS011;5585;52.530;7.320;2024-03-22T02:08:35;32.58;;;26.58;;
11064;SDS011;5585;52.530;7.320;2024-03-22T02:11:00;31.02;;;25.10;;
11064;SDS011;5585;52.530;7.320;2024-03-22T02:13:27;31.75;;;24.98;;
11064;SDS011;5585;52.530;7.320;2024-03-22T02:15:52;33.08;;;25.58;;
11064;SDS011;5585;52.530;7.320;2024-03-22T02:18:20;34.30;;;26.53;;
11064;SDS011;5585;52.530;7.320;2024-03-22T02:20:46;34.93;;;26.47;;
11064;SDS011;5585;52.530;7.320;2024-03-22T02:23:12;32.03;;;25.35;;
11064;SDS011;5585;52.530;7.320;2024-03-22T02:25:39;33.80;;;24.97;;
11064;SDS011;5585;52.530;7.320;2024-03-22T02:28:05;32.83;;;25.17;;
11064;SDS011;5585;52.530;7.320;2024-03-22T02:30:31;33.22;;;26.35;;
11064;SDS011;5585;52.530;7.320;2024-03-22T02:32:57;34.70;;;25.90;;
11064;SDS011;5585;52.530;7.320;2024-03-22T02:35:23;34.55;;;25.48;;
11064;SDS011;5585;52.530;7.320;2024-03-22T02:37:49;32.60;;;24.33;;
11064;SDS011;5585;52.530;7.320;2024-03-22T02:40:15;32.53;;;24.00;;
11064;SDS011;5585;52.530;7.320;2024-03-22T02:42:43;33.83;;;26.13;;
11064;SDS011;5585;52.530;7.320;2024-03-22T02:45:08;33.77;;;25.47;;
11064;SDS011;5585;52.530;7.320;2024-03-22T02:47:35;35.03;;;26.30;;
11064;SDS011;5585;52.530;7.320;2024-03-22T02:50:00;32.93;;;25.03;;
11064;SDS011;5585;52.530;7.320;2024-03-22T02:52:27;32.83;;;24.47;;
11064;SDS011;5585;52.530;7.320;2024-03-22T02:54:52;32.80;;;24.67;;
11064;SDS011;5585;52.530;7.320;2024-03-22T02:57:18;33.27;;;24.40;;
11064;SDS011;5585;52.530;7.320;2024-03-22T02:59:46;32.13;;;24.87;;
11064;SDS011;5585;52.530;7.320;2024-03-22T03:02:12;36.50;;;25.97;;
11064;SDS011;5585;52.530;7.320;2024-03-22T03:04:38;35.67;;;26.55;;
11064;SDS011;5585;52.530;7.320;2024-03-22T03:07:04;35.57;;;25.30;;
11064;SDS011;5585;52.530;7.320;2024-03-22T03:09:29;33.97;;;24.23;;
11064;SDS011;5585;52.530;7.320;2024-03-22T03:11:56;40.07;;;25.90;;
11064;SDS011;5585;52.530;7.320;2024-03-22T03:14:21;34.00;;;25.30;;
11064;SDS011;5585;52.530;7.320;2024-03-22T03:16:49;33.10;;;25.00;;
11064;SDS011;5585;52.530;7.320;2024-03-22T03:19:15;32.67;;;25.47;;
11064;SDS011;5585;52.530;7.320;2024-03-22T03:21:41;33.37;;;25.27;;
11064;SDS011;5585;52.530;7.320;2024-03-22T03:24:07;36.22;;;26.63;;
11064;SDS011;5585;52.530;7.320;2024-03-22T03:26:34;38.17;;;25.87;;
11064;SDS011;5585;52.530;7.320;2024-03-22T03:28:59;39.23;;;27.87;;
11064;SDS011;5585;52.530;7.320;2024-03-22T03:31:26;37.35;;;26.45;;
11064;SDS011;5585;52.530;7.320;2024-03-22T03:33:53;31.97;;;25.33;;
11064;SDS011;5585;52.530;7.320;2024-03-22T03:36:19;36.33;;;26.80;;
11064;SDS011;5585;52.530;7.320;2024-03-22T03:38:45;35.65;;;25.23;;
11064;SDS011;5585;52.530;7.320;2024-03-22T03:41:11;34.05;;;25.40;;
11064;SDS011;5585;52.530;7.320;2024-03-22T03:43:36;35.60;;;24.95;;
11064;SDS011;5585;52.530;7.320;2024-03-22T03:46:03;36.43;;;25.90;;
11064;SDS011;5585;52.530;7.320;2024-03-22T03:48:28;35.70;;;26.00;;
11064;SDS011;5585;52.530;7.320;2024-03-22T03:50:56;39.67;;;27.38;;
11064;SDS011;5585;52.530;7.320;2024-03-22T03:53:27;39.40;;;26.83;;
11064;SDS011;5585;52.530;7.320;2024-03-22T03:55:54;38.97;;;26.50;;
11064;SDS011;5585;52.530;7.320;2024-03-22T03:58:19;35.27;;;25.00;;
11064;SDS011;5585;52.530;7.320;2024-03-22T04:00:46;40.43;;;26.93;;
11064;SDS011;5585;52.530;7.320;2024-03-22T04:03:11;37.28;;;25.88;;
11064;SDS011;5585;52.530;7.320;2024-03-22T04:05:37;37.28;;;26.00;;
11064;SDS011;5585;52.530;7.320;2024-03-22T04:08:04;38.00;;;27.05;;
11064;SDS011;5585;52.530;7.320;2024-03-22T04:10:31;40.50;;;27.70;;
11064;SDS011;5585;52.530;7.320;2024-03-22T04:12:57;35.53;;;27.60;;
11064;SDS011;5585;52.530;7.320;2024-03-22T04:15:23;36.63;;;26.43;;
11064;SDS011;5585;52.530;7.320;2024-03-22T04:17:49;37.30;;;26.37;;
11064;SDS011;5585;52.530;7.320;2024-03-22T04:20:15;36.30;;;25.60;;
11064;SDS011;5585;52.530;7.320;2024-03-22T04:22:40;37.13;;;25.95;;
11064;SDS011;5585;52.530;7.320;2024-03-22T04:25:08;36.72;;;26.35;;
11064;SDS011;5585;52.530;7.320;2024-03-22T04:27:35;39.08;;;27.30;;
11064;SDS011;5585;52.530;7.320;2024-03-22T04:30:02;35.70;;;26.35;;
11064;SDS011;5585;52.530;7.320;2024-03-22T04:32:27;33.95;;;25.40;;
11064;SDS011;5585;52.530;7.320;2024-03-22T04:34:53;36.75;;;25.63;;
11064;SDS011;5585;52.530;7.320;2024-03-22T04:37:20;38.05;;;26.73;;
11064;SDS011;5585;52.530;7.320;2024-03-22T04:39:46;38.15;;;26.05;;
11064;SDS011;5585;52.530;7.320;2024-03-22T04:42:14;38.25;;;26.15;;
11064;SDS011;5585;52.530;7.320;2024-03-22T04:44:41;36.70;;;25.35;;
11064;SDS011;5585;52.530;7.320;2024-03-22T04:47:07;36.70;;;25.65;;
11064;SDS011;5585;52.530;7.320;2024-03-22T04:49:32;38.40;;;25.63;;
11064;SDS011;5585;52.530;7.320;2024-03-22T04:51:59;37.28;;;26.45;;
11064;SDS011;5585;52.530;7.320;2024-03-22T04:54:24;38.17;;;26.53;;
11064;SDS011;5585;52.530;7.320;2024-03-22T04:56:51;36.97;;;25.13;;
11064;SDS011;5585;52.530;7.320;2024-03-22T04:59:18;38.05;;;26.48;;
11064;SDS011;5585;52.530;7.320;2024-03-22T05:01:44;36.35;;;25.48;;
11064;SDS011;5585;52.530;7.320;2024-03-22T05:04:10;39.85;;;27.48;;
11064;SDS011;5585;52.530;7.320;2024-03-22T05:06:37;35.87;;;25.77;;
11064;SDS011;5585;52.530;7.320;2024-03-22T05:09:02;36.95;;;26.42;;
11064;SDS011;5585;52.530;7.320;2024-03-22T05:11:29;34.80;;;25.88;;
11064;SDS011;5585;52.530;7.320;2024-03-22T05:13:55;37.17;;;26.58;;
11064;SDS011;5585;52.530;7.320;2024-03-22T05:16:23;37.05;;;26.52;;
11064;SDS011;5585;52.530;7.320;2024-03-22T05:18:49;36.55;;;26.45;;
11064;SDS011;5585;52.530;7.320;2024-03-22T05:21:15;38.80;;;28.27;;
11064;SDS011;5585;52.530;7.320;2024-03-22T05:23:40;34.40;;;26.00;;
11064;SDS011;5585;52.530;7.320;2024-03-22T05:26:07;37.58;;;27.13;;
11064;SDS011;5585;52.530;7.320;2024-03-22T05:28:32;41.63;;;29.02;;
11064;SDS011;5585;52.530;7.320;2024-03-22T05:30:59;38.70;;;27.23;;
11064;SDS011;5585;52.530;7.320;2024-03-22T05:33:26;41.22;;;27.92;;
11064;SDS011;5585;52.530;7.320;2024-03-22T05:35:53;39.97;;;27.67;;
11064;SDS011;5585;52.530;7.320;2024-03-22T05:38:19;35.80;;;26.73;;
11064;SDS011;5585;52.530;7.320;2024-03-22T05:40:45;38.60;;;28.42;;
11064;SDS011;5585;52.530;7.320;2024-03-22T05:43:12;38.90;;;28.60;;
11064;SDS011;5585;52.530;7.320;2024-03-22T05:45:39;37.60;;;26.80;;
11064;SDS011;5585;52.530;7.320;2024-03-22T05:48:05;37.85;;;28.08;;
11064;SDS011;5585;52.530;7.320;2024-03-22T05:50:32;40.80;;;30.30;;
11064;SDS011;5585;52.530;7.320;2024-03-22T05:52:59;39.50;;;28.07;;
11064;SDS011;5585;52.530;7.320;2024-03-22T05:55:24;41.17;;;28.52;;
11064;SDS011;5585;52.530;7.320;2024-03-22T05:57:52;40.53;;;29.00;;
11064;SDS011;5585;52.530;7.320;2024-03-22T06:00:18;36.83;;;26.70;;
11064;SDS011;5585;52.530;7.320;2024-03-22T06:02:44;35.10;;;27.23;;
11064;SDS011;5585;52.530;7.320;2024-03-22T06:05:09;37.92;;;28.75;;
11064;SDS011;5585;52.530;7.320;2024-03-22T06:07:37;41.90;;;29.48;;
11064;SDS011;5585;52.530;7.320;2024-03-22T06:10:07;40.33;;;29.63;;
11064;SDS011;5585;52.530;7.320;2024-03-22T06:12:34;37.15;;;28.50;;
11064;SDS011;5585;52.530;7.320;2024-03-22T06:15:00;40.70;;;30.33;;
11064;SDS011;5585;52.530;7.320;2024-03-22T06:17:26;43.28;;;31.35;;
11064;SDS011;5585;52.530;7.320;2024-03-22T06:19:52;42.65;;;30.08;;
11064;SDS011;5585;52.530;7.320;2024-03-22T06:22:18;39.67;;;29.30;;
11064;SDS011;5585;52.530;7.320;2024-03-22T06:24:45;38.15;;;28.08;;
11064;SDS011;5585;52.530;7.320;2024-03-22T06:27:12;37.83;;;28.57;;
11064;SDS011;5585;52.530;7.320;2024-03-22T06:29:38;41.35;;;30.05;;
11064;SDS011;5585;52.530;7.320;2024-03-22T06:32:05;37.00;;;29.27;;
11064;SDS011;5585;52.530;7.320;2024-03-22T06:34:31;39.95;;;29.67;;
11064;SDS011;5585;52.530;7.320;2024-03-22T06:36:57;39.70;;;30.07;;
11064;SDS011;5585;52.530;7.320;2024-03-22T06:39:23;39.10;;;29.73;;
11064;SDS011;5585;52.530;7.320;2024-03-22T06:41:51;39.70;;;30.15;;
11064;SDS011;5585;52.530;7.320;2024-03-22T06:44:16;40.13;;;29.83;;
11064;SDS011;5585;52.530;7.320;2024-03-22T06:46:43;41.17;;;30.00;;
11064;SDS011;5585;52.530;7.320;2024-03-22T06:49:14;40.03;;;29.23;;
11064;SDS011;5585;52.530;7.320;2024-03-22T06:51:41;36.60;;;28.10;;
11064;SDS011;5585;52.530;7.320;2024-03-22T06:54:06;35.83;;;27.83;;
11064;SDS011;5585;52.530;7.320;2024-03-22T06:56:33;38.35;;;29.67;;
11064;SDS011;5585;52.530;7.320;2024-03-22T06:59:02;37.70;;;29.10;;
11064;SDS011;5585;52.530;7.320;2024-03-22T07:01:29;40.10;;;30.58;;
11064;SDS011;5585;52.530;7.320;2024-03-22T07:03:54;39.05;;;28.85;;
11064;SDS011;5585;52.530;7.320;2024-03-22T07:06:21;42.20;;;30.48;;
11064;SDS011;5585;52.530;7.320;2024-03-22T07:08:46;40.33;;;30.08;;
11064;SDS011;5585;52.530;7.320;2024-03-22T07:11:13;39.08;;;29.10;;
11064;SDS011;5585;52.530;7.320;2024-03-22T07:13:38;38.58;;;29.42;;
11064;SDS011;5585;52.530;7.320;2024-03-22T07:16:06;38.58;;;30.02;;
11064;SDS011;5585;52.530;7.320;2024-03-22T07:18:32;39.13;;;29.40;;
11064;SDS011;5585;52.530;7.320;2024-03-22T07:20:58;37.13;;;29.27;;
11064;SDS011;5585;52.530;7.320;2024-03-22T07:23:26;38.72;;;28.88;;
11064;SDS011;5585;52.530;7.320;2024-03-22T07:25:53;35.90;;;27.00;;
11064;SDS011;5585;52.530;7.320;2024-03-22T07:28:18;36.35;;;28.98;;
11064;SDS011;5585;52.530;7.320;2024-03-22T07:30:44;35.25;;;26.55;;
11064;SDS011;5585;52.530;7.320;2024-03-22T07:33:11;39.17;;;29.13;;
11064;SDS011;5585;52.530;7.320;2024-03-22T07:35:41;36.95;;;27.38;;
11064;SDS011;5585;52.530;7.320;2024-03-22T07:38:07;38.08;;;28.23;;
11064;SDS011;5585;52.530;7.320;2024-03-22T07:40:33;33.40;;;26.52;;
11064;SDS011;5585;52.530;7.320;2024-03-22T07:42:59;37.00;;;28.10;;
11064;SDS011;5585;52.530;7.320;2024-03-22T07:45:30;37.40;;;27.88;;
11064;SDS011;5585;52.530;7.320;2024-03-22T07:47:56;34.07;;;26.60;;
11064;SDS011;5585;52.530;7.320;2024-03-22T07:50:24;34.65;;;26.48;;
11064;SDS011;5585;52.530;7.320;2024-03-22T07:52:49;36.80;;;26.80;;
11064;SDS011;5585;52.530;7.320;2024-03-22T07:55:16;33.53;;;25.60;;
11064;SDS011;5585;52.530;7.320;2024-03-22T07:57:42;33.63;;;26.20;;
11064;SDS011;5585;52.530;7.320;2024-03-22T08:00:09;35.15;;;25.02;;
11064;SDS011;5585;52.530;7.320;2024-03-22T08:02:35;32.60;;;25.02;;
11064;SDS011;5585;52.530;7.320;2024-03-22T08:05:01;31.52;;;24.85;;
11064;SDS011;5585;52.530;7.320;2024-03-22T08:07:28;37.67;;;26.02;;
11064;SDS011;5585;52.530;7.320;2024-03-22T08:09:55;34.17;;;24.58;;
11064;SDS011;5585;52.530;7.320;2024-03-22T08:12:20;34.80;;;26.37;;
11064;SDS011;5585;52.530;7.320;2024-03-22T08:14:47;30.50;;;24.47;;
11064;SDS011;5585;52.530;7.320;2024-03-22T08:17:12;34.40;;;26.55;;
11064;SDS011;5585;52.530;7.320;2024-03-22T08:19:40;34.07;;;23.87;;
11064;SDS011;5585;52.530;7.320;2024-03-22T08:22:05;34.17;;;25.58;;
11064;SDS011;5585;52.530;7.320;2024-03-22T08:24:33;31.80;;;24.63;;
11064;SDS011;5585;52.530;7.320;2024-03-22T08:26:58;31.38;;;23.90;;
11064;SDS011;5585;52.530;7.320;2024-03-22T08:29:25;34.72;;;25.67;;
11064;SDS011;5585;52.530;7.320;2024-03-22T08:31:50;33.67;;;25.02;;
11064;SDS011;5585;52.530;7.320;2024-03-22T08:34:18;31.80;;;24.48;;
11064;SDS011;5585;52.530;7.320;2024-03-22T08:36:43;34.10;;;24.73;;
11064;SDS011;5585;52.530;7.320;2024-03-22T08:39:10;30.77;;;23.92;;
11064;SDS011;5585;52.530;7.320;2024-03-22T08:41:37;27.33;;;21.75;;
11064;SDS011;5585;52.530;7.320;2024-03-22T08:44:03;29.73;;;22.90;;
11064;SDS011;5585;52.530;7.320;2024-03-22T08:46:29;31.52;;;24.95;;
11064;SDS011;5585;52.530;7.320;2024-03-22T08:48:57;27.13;;;22.63;;
11064;SDS011;5585;52.530;7.320;2024-03-22T08:51:22;32.15;;;25.05;;
11064;SDS011;5585;52.530;7.320;2024-03-22T08:53:49;30.65;;;24.75;;
11064;SDS011;5585;52.530;7.320;2024-03-22T08:56:15;29.88;;;22.38;;
11064;SDS011;5585;52.530;7.320;2024-03-22T08:58:43;28.00;;;24.00;;
11064;SDS011;5585;52.530;7.320;2024-03-22T09:01:08;30.55;;;24.15;;
11064;SDS011;5585;52.530;7.320;2024-03-22T09:03:35;33.25;;;25.10;;
11064;SDS011;5585;52.530;7.320;2024-03-22T09:06:01;29.08;;;23.00;;
11064;SDS011;5585;52.530;7.320;2024-03-22T09:08:27;31.38;;;24.75;;
11064;SDS011;5585;52.530;7.320;2024-03-22T09:10:54;30.33;;;24.75;;
11064;SDS011;5585;52.530;7.320;2024-03-22T09:13:20;32.40;;;24.20;;
11064;SDS011;5585;52.530;7.320;2024-03-22T09:15:47;31.33;;;24.00;;
11064;SDS011;5585;52.530;7.320;2024-03-22T09:18:14;28.50;;;24.17;;
11064;SDS011;5585;52.530;7.320;2024-03-22T09:20:39;34.75;;;25.90;;
11064;SDS011;5585;52.530;7.320;2024-03-22T09:23:05;32.10;;;24.58;;
11064;SDS011;5585;52.530;7.320;2024-03-22T09:25:31;27.80;;;21.92;;
11064;SDS011;5585;52.530;7.320;2024-03-22T09:27:58;29.50;;;23.48;;
11064;SDS011;5585;52.530;7.320;2024-03-22T09:30:24;30.02;;;23.23;;
11064;SDS011;5585;52.530;7.320;2024-03-22T09:32:52;29.20;;;23.40;;
11064;SDS011;5585;52.530;7.320;2024-03-22T09:35:18;30.27;;;23.67;;
11064;SDS011;5585;52.530;7.320;2024-03-22T09:37:44;31.98;;;23.42;;
11064;SDS011;5585;52.530;7.320;2024-03-22T09:40:10;27.73;;;22.57;;
11064;SDS011;5585;52.530;7.320;2024-03-22T09:42:37;32.93;;;24.90;;
11064;SDS011;5585;52.530;7.320;2024-03-22T09:45:04;30.13;;;23.20;;
11064;SDS011;5585;52.530;7.320;2024-03-22T09:47:33;27.03;;;22.30;;
11064;SDS011;5585;52.530;7.320;2024-03-22T09:50:00;30.17;;;23.70;;
11064;SDS011;5585;52.530;7.320;2024-03-22T09:52:27;31.00;;;23.15;;
11064;SDS011;5585;52.530;7.320;2024-03-22T09:54:53;31.35;;;22.80;;
11064;SDS011;5585;52.530;7.320;2024-03-22T09:57:20;30.63;;;22.73;;
11064;SDS011;5585;52.530;7.320;2024-03-22T09:59:46;29.30;;;23.58;;
11064;SDS011;5585;52.530;7.320;2024-03-22T10:02:13;29.35;;;21.83;;
11064;SDS011;5585;52.530;7.320;2024-03-22T10:04:38;29.77;;;21.67;;
11064;SDS011;5585;52.530;7.320;2024-03-22T10:07:06;27.20;;;21.33;;
11064;SDS011;5585;52.530;7.320;2024-03-22T10:09:33;31.50;;;22.40;;
11064;SDS011;5585;52.530;7.320;2024-03-22T10:12:00;28.63;;;23.33;;
11064;SDS011;5585;52.530;7.320;2024-03-22T10:14:25;29.23;;;22.43;;
11064;SDS011;5585;52.530;7.320;2024-03-22T10:16:52;29.27;;;22.47;;
11064;SDS011;5585;52.530;7.320;2024-03-22T10:19:18;29.17;;;23.23;;
11064;SDS011;5585;52.530;7.320;2024-03-22T10:21:44;30.15;;;22.70;;
11064;SDS011;5585;52.530;7.320;2024-03-22T10:24:11;30.20;;;22.30;;
11064;SDS011;5585;52.530;7.320;2024-03-22T10:26:38;26.83;;;20.60;;
11064;SDS011;5585;52.530;7.320;2024-03-22T10:29:05;29.13;;;22.07;;
11064;SDS011;5585;52.530;7.320;2024-03-22T10:31:31;27.83;;;21.40;;
11064;SDS011;5585;52.530;7.320;2024-03-22T10:33:57;27.92;;;20.85;;
11064;SDS011;5585;52.530;7.320;2024-03-22T10:36:25;27.37;;;22.40;;
11064;SDS011;5585;52.530;7.320;2024-03-22T10:38:50;29.73;;;22.63;;
11064;SDS011;5585;52.530;7.320;2024-03-22T10:41:20;27.33;;;22.63;;
11064;SDS011;5585;52.530;7.320;2024-03-22T10:43:46;34.63;;;22.93;;
11064;SDS011;5585;52.530;7.320;2024-03-22T10:46:12;27.97;;;21.37;;
11064;SDS011;5585;52.530;7.320;2024-03-22T10:48:38;27.60;;;21.83;;
11064;SDS011;5585;52.530;7.320;2024-03-22T10:51:05;26.17;;;19.57;;
11064;SDS011;5585;52.530;7.320;2024-03-22T10:53:32;23.23;;;19.03;;
11064;SDS011;5585;52.530;7.320;2024-03-22T10:55:59;25.80;;;18.33;;
11064;SDS011;5585;52.530;7.320;2024-03-22T10:58:27;25.60;;;18.33;;
11064;SDS011;5585;52.530;7.320;2024-03-22T11:00:54;21.67;;;17.43;;
11064;SDS011;5585;52.530;7.320;2024-03-22T11:03:21;20.67;;;16.03;;
11064;SDS011;5585;52.530;7.320;2024-03-22T11:05:48;19.80;;;15.57;;
11064;SDS011;5585;52.530;7.320;2024-03-22T11:08:22;16.87;;;13.67;;
11064;SDS011;5585;52.530;7.320;2024-03-22T11:10:49;15.37;;;12.63;;
11064;SDS011;5585;52.530;7.320;2024-03-22T11:13:15;13.50;;;11.77;;
11064;SDS011;5585;52.530;7.320;2024-03-22T11:15:43;14.20;;;12.03;;
11064;SDS011;5585;52.530;7.320;2024-03-22T11:18:09;13.70;;;10.87;;
11064;SDS011;5585;52.530;7.320;2024-03-22T11:20:36;14.33;;;11.70;;
11064;SDS011;5585;52.530;7.320;2024-03-22T11:23:03;13.13;;;11.57;;
11064;SDS011;5585;52.530;7.320;2024-03-22T11:25:31;14.77;;;11.87;;
11064;SDS011;5585;52.530;7.320;2024-03-22T11:27:57;15.53;;;11.53;;
11064;SDS011;5585;52.530;7.320;2024-03-22T11:30:23;14.93;;;12.40;;
11064;SDS011;5585;52.530;7.320;2024-03-22T11:32:50;15.20;;;11.97;;
11064;SDS011;5585;52.530;7.320;2024-03-22T11:35:17;17.23;;;12.80;;
11064;SDS011;5585;52.530;7.320;2024-03-22T11:37:42;16.00;;;12.43;;
11064;SDS011;5585;52.530;7.320;2024-03-22T11:40:09;13.50;;;11.77;;
11064;SDS011;5585;52.530;7.320;2024-03-22T11:42:35;15.80;;;12.23;;
11064;SDS011;5585;52.530;7.320;2024-03-22T11:45:02;14.45;;;11.60;;
11064;SDS011;5585;52.530;7.320;2024-03-22T11:47:28;12.13;;;10.90;;
11064;SDS011;5585;52.530;7.320;2024-03-22T11:49:56;13.63;;;10.33;;
11064;SDS011;5585;52.530;7.320;2024-03-22T11:52:23;12.03;;;10.33;;
11064;SDS011;5585;52.530;7.320;2024-03-22T11:54:50;10.67;;;9.50;;
11064;SDS011;5585;52.530;7.320;2024-03-22T11:57:17;9.70;;;8.70;;
11064;SDS011;5585;52.530;7.320;2024-03-22T11:59:43;10.20;;;9.03;;
11064;SDS011;5585;52.530;7.320;2024-03-22T12:02:09;10.33;;;9.03;;
11064;SDS011;5585;52.530;7.320;2024-03-22T12:04:40;9.57;;;8.33;;
11064;SDS011;5585;52.530;7.320;2024-03-22T12:07:06;9.40;;;8.40;;
11064;SDS011;5585;52.530;7.320;2024-03-22T12:09:35;10.97;;;9.23;;
11064;SDS011;5585;52.530;7.320;2024-03-22T12:12:00;10.60;;;8.87;;
11064;SDS011;5585;52.530;7.320;2024-03-22T12:14:26;10.77;;;7.93;;
11064;SDS011;5585;52.530;7.320;2024-03-22T12:16:52;10.07;;;8.27;;
11064;SDS011;5585;52.530;7.320;2024-03-22T12:19:18;11.00;;;9.20;;
11064;SDS011;5585;52.530;7.320;2024-03-22T12:21:44;10.80;;;8.97;;
11064;SDS011;5585;52.530;7.320;2024-03-22T12:24:11;9.33;;;8.33;;
11064;SDS011;5585;52.530;7.320;2024-03-22T12:26:37;8.97;;;8.07;;
11064;SDS011;5585;52.530;7.320;2024-03-22T12:29:03;10.83;;;8.40;;
11064;SDS011;5585;52.530;7.320;2024-03-22T12:31:29;9.27;;;8.37;;
11064;SDS011;5585;52.530;7.320;2024-03-22T12:33:56;10.93;;;8.07;;
11064;SDS011;5585;52.530;7.320;2024-03-22T12:36:21;10.27;;;8.23;;
11064;SDS011;5585;52.530;7.320;2024-03-22T12:38:48;9.40;;;8.37;;
11064;SDS011;5585;52.530;7.320;2024-03-22T12:41:14;10.70;;;8.80;;
11064;SDS011;5585;52.530;7.320;2024-03-22T12:43:41;9.73;;;8.73;;
11064;SDS011;5585;52.530;7.320;2024-03-22T12:46:08;8.77;;;7.87;;
11064;SDS011;5585;52.530;7.320;2024-03-22T12:48:34;9.10;;;8.07;;
11064;SDS011;5585;52.530;7.320;2024-03-22T12:51:00;9.13;;;8.23;;
11064;SDS011;5585;52.530;7.320;2024-03-22T12:53:26;8.60;;;7.70;;
11064;SDS011;5585;52.530;7.320;2024-03-22T12:55:52;8.35;;;7.55;;
11064;SDS011;5585;52.530;7.320;2024-03-22T12:58:19;8.95;;;8.10;;
11064;SDS011;5585;52.530;7.320;2024-03-22T13:00:45;8.48;;;7.53;;
11064;SDS011;5585;52.530;7.320;2024-03-22T13:03:11;8.73;;;7.60;;
11064;SDS011;5585;52.530;7.320;2024-03-22T13:05:38;8.57;;;7.72;;
11064;SDS011;5585;52.530;7.320;2024-03-22T13:08:05;9.15;;;8.25;;
11064;SDS011;5585;52.530;7.320;2024-03-22T13:10:30;7.60;;;6.80;;
11064;SDS011;5585;52.530;7.320;2024-03-22T13:12:57;7.80;;;7.05;;
11064;SDS011;5585;52.530;7.320;2024-03-22T13:15:24;8.05;;;7.07;;
11064;SDS011;5585;52.530;7.320;2024-03-22T13:17:50;8.07;;;7.27;;
11064;SDS011;5585;52.530;7.320;2024-03-22T13:20:17;8.17;;;7.37;;
11064;SDS011;5585;52.530;7.320;2024-03-22T13:22:44;8.70;;;7.27;;
11064;SDS011;5585;52.530;7.320;2024-03-22T13:25:10;8.20;;;7.23;;
11064;SDS011;5585;52.530;7.320;2024-03-22T13:27:37;7.30;;;6.60;;
11064;SDS011;5585;52.530;7.320;2024-03-22T13:30:04;7.70;;;6.97;;
11064;SDS011;5585;52.530;7.320;2024-03-22T13:32:36;7.33;;;6.63;;
11064;SDS011;5585;52.530;7.320;2024-03-22T13:35:01;7.05;;;6.35;;
11064;SDS011;5585;52.530;7.320;2024-03-22T13:37:28;8.30;;;7.40;;
11064;SDS011;5585;52.530;7.320;2024-03-22T13:39:54;7.90;;;7.10;;
11064;SDS011;5585;52.530;7.320;2024-03-22T13:42:20;7.03;;;6.33;;
11064;SDS011;5585;52.530;7.320;2024-03-22T13:44:46;6.97;;;6.37;;
11064;SDS011;5585;52.530;7.320;2024-03-22T13:47:12;6.87;;;6.27;;
11064;SDS011;5585;52.530;7.320;2024-03-22T13:49:39;6.38;;;5.78;;
11064;SDS011;5585;52.530;7.320;2024-03-22T13:52:06;6.20;;;5.60;;
11064;SDS011;5585;52.530;7.320;2024-03-22T13:54:31;6.65;;;5.70;;
11064;SDS011;5585;52.530;7.320;2024-03-22T13:56:58;5.90;;;5.40;;
11064;SDS011;5585;52.530;7.320;2024-03-22T13:59:23;7.13;;;6.22;;
11064;SDS011;5585;52.530;7.320;2024-03-22T14:01:50;5.70;;;5.20;;
11064;SDS011;5585;52.530;7.320;2024-03-22T14:04:15;5.00;;;4.50;;
11064;SDS011;5585;52.530;7.320;2024-03-22T14:06:43;4.43;;;4.03;;
11064;SDS011;5585;52.530;7.320;2024-03-22T14:09:08;4.50;;;4.10;;
11064;SDS011;5585;52.530;7.320;2024-03-22T14:11:38;3.87;;;3.57;;
11064;SDS011;5585;52.530;7.320;2024-03-22T14:14:03;4.13;;;3.67;;
11064;SDS011;5585;52.530;7.320;2024-03-22T14:16:30;4.03;;;3.40;;
11064;SDS011;5585;52.530;7.320;2024-03-22T14:18:55;3.60;;;3.30;;
11064;SDS011;5585;52.530;7.320;2024-03-22T14:21:22;3.37;;;3.10;;
11064;SDS011;5585;52.530;7.320;2024-03-22T14:23:49;3.17;;;2.88;;
11064;SDS011;5585;52.530;7.320;2024-03-22T14:26:16;2.80;;;2.60;;
11064;SDS011;5585;52.530;7.320;2024-03-22T14:28:41;2.88;;;2.67;;
11064;SDS011;5585;52.530;7.320;2024-03-22T14:31:08;3.40;;;3.10;;
11064;SDS011;5585;52.530;7.320;2024-03-22T14:33:34;3.30;;;3.00;;